sensor_id;sensor_type;location;lat;lon;timestamp;pressure;altitude;pressure_sealevel;temperature;humidity
56600;BME280;51832;48.152;11.530;2023-06-22T00:01:10;95556.59;;;28.35;49.42
56600;BME280;51832;48.152;11.530;2023-06-22T00:06:10;95551.25;;;28.26;49.71
56600;BME280;51832;48.152;11.530;2023-06-22T00:11:11;95550.38;;;28.14;49.35
56600;BME280;51832;48.152;11.530;2023-06-22T00:16:11;95548.22;;;27.86;50.34
56600;BME280;51832;48.152;11.530;2023-06-22T00:21:12;95539.78;;;27.88;50.59
56600;BME280;51832;48.152;11.530;2023-06-22T00:26:13;95541.06;;;28.03;50.49
56600;BME280;51832;48.152;11.530;2023-06-22T00:31:14;95551.22;;;28.06;49.99
56600;BME280;51832;48.152;11.530;2023-06-22T00:36:14;95564.22;;;27.91;50.37
56600;BME280;51832;48.152;11.530;2023-06-22T00:41:18;95551.81;;;27.90;50.58
56600;BME280;51832;48.152;11.530;2023-06-22T00:46:18;95541.88;;;27.82;50.53
56600;BME280;51832;48.152;11.530;2023-06-22T00:51:18;95549.84;;;27.79;50.69
56600;BME280;51832;48.152;11.530;2023-06-22T00:56:24;95546.81;;;27.80;50.41
56600;BME280;51832;48.152;11.530;2023-06-22T01:01:25;95545.69;;;27.81;50.05
56600;BME280;51832;48.152;11.530;2023-06-22T01:06:31;95524.13;;;27.73;50.29
56600;BME280;51832;48.152;11.530;2023-06-22T01:11:39;95526.44;;;27.83;50.15
56600;BME280;51832;48.152;11.530;2023-06-22T01:16:44;95511.75;;;27.63;50.39
56600;BME280;51832;48.152;11.530;2023-06-22T01:21:45;95503.97;;;27.62;50.58
56600;BME280;51832;48.152;11.530;2023-06-22T01:31:54;95504.66;;;27.58;50.58
56600;BME280;51832;48.152;11.530;2023-06-22T01:36:56;95498.63;;;27.53;50.27
56600;BME280;51832;48.152;11.530;2023-06-22T01:41:58;95487.66;;;27.49;50.75
56600;BME280;51832;48.152;11.530;2023-06-22T01:46:59;95490.50;;;27.53;50.52
56600;BME280;51832;48.152;11.530;2023-06-22T01:52:00;95494.06;;;27.45;50.97
56600;BME280;51832;48.152;11.530;2023-06-22T01:57:01;95492.97;;;27.37;50.99
56600;BME280;51832;48.152;11.530;2023-06-22T02:02:06;95486.13;;;27.10;51.97
56600;BME280;51832;48.152;11.530;2023-06-22T02:07:13;95501.28;;;27.03;52.08
56600;BME280;51832;48.152;11.530;2023-06-22T02:12:22;95499.53;;;26.98;52.30
56600;BME280;51832;48.152;11.530;2023-06-22T02:17:23;95504.97;;;26.89;52.15
56600;BME280;51832;48.152;11.530;2023-06-22T02:22:24;95508.50;;;26.73;53.31
56600;BME280;51832;48.152;11.530;2023-06-22T02:27:25;95508.50;;;26.73;53.89
56600;BME280;51832;48.152;11.530;2023-06-22T02:32:25;95508.25;;;26.48;53.45
56600;BME280;51832;48.152;11.530;2023-06-22T02:37:25;95520.78;;;26.53;54.19
56600;BME280;51832;48.152;11.530;2023-06-22T02:42:29;95521.56;;;26.53;54.54
56600;BME280;51832;48.152;11.530;2023-06-22T02:47:30;95531.25;;;26.54;54.46
56600;BME280;51832;48.152;11.530;2023-06-22T02:52:30;95535.06;;;26.62;53.44
56600;BME280;51832;48.152;11.530;2023-06-22T02:57:31;95528.41;;;26.60;53.73
56600;BME280;51832;48.152;11.530;2023-06-22T03:02:31;95520.97;;;26.48;54.13
56600;BME280;51832;48.152;11.530;2023-06-22T03:07:31;95519.69;;;26.45;54.17
56600;BME280;51832;48.152;11.530;2023-06-22T03:12:32;95504.31;;;26.03;55.46
56600;BME280;51832;48.152;11.530;2023-06-22T03:17:37;95509.72;;;26.03;56.07
56600;BME280;51832;48.152;11.530;2023-06-22T03:22:40;95512.09;;;25.87;55.51
56600;BME280;51832;48.152;11.530;2023-06-22T03:27:42;95503.22;;;25.87;56.50
56600;BME280;51832;48.152;11.530;2023-06-22T03:32:42;95502.25;;;26.00;56.28
56600;BME280;51832;48.152;11.530;2023-06-22T03:37:43;95505.28;;;26.07;55.96
56600;BME280;51832;48.152;11.530;2023-06-22T03:42:44;95514.16;;;26.07;56.64
56600;BME280;51832;48.152;11.530;2023-06-22T03:47:44;95518.44;;;26.17;55.73
56600;BME280;51832;48.152;11.530;2023-06-22T03:52:44;95524.94;;;26.33;55.44
56600;BME280;51832;48.152;11.530;2023-06-22T03:57:45;95521.09;;;26.51;54.78
56600;BME280;51832;48.152;11.530;2023-06-22T04:02:45;95528.25;;;26.39;55.33
56600;BME280;51832;48.152;11.530;2023-06-22T04:07:45;95531.69;;;26.65;54.86
56600;BME280;51832;48.152;11.530;2023-06-22T04:12:46;95543.28;;;26.66;54.52
56600;BME280;51832;48.152;11.530;2023-06-22T04:17:48;95532.91;;;26.85;54.21
56600;BME280;51832;48.152;11.530;2023-06-22T04:22:48;95529.09;;;26.86;54.14
56600;BME280;51832;48.152;11.530;2023-06-22T04:27:49;95516.88;;;26.97;53.01
56600;BME280;51832;48.152;11.530;2023-06-22T04:32:50;95520.53;;;26.84;54.18
56600;BME280;51832;48.152;11.530;2023-06-22T04:37:58;95516.72;;;26.94;53.62
56600;BME280;51832;48.152;11.530;2023-06-22T04:42:58;95508.44;;;26.99;53.35
56600;BME280;51832;48.152;11.530;2023-06-22T04:48:02;95510.19;;;27.03;53.77
56600;BME280;51832;48.152;11.530;2023-06-22T04:53:02;95511.00;;;27.24;52.99
56600;BME280;51832;48.152;11.530;2023-06-22T04:58:05;95505.06;;;27.40;52.24
56600;BME280;51832;48.152;11.530;2023-06-22T05:03:06;95511.19;;;27.49;52.16
56600;BME280;51832;48.152;11.530;2023-06-22T05:08:06;95499.25;;;27.58;51.72
56600;BME280;51832;48.152;11.530;2023-06-22T05:13:07;95501.22;;;27.70;51.61
56600;BME280;51832;48.152;11.530;2023-06-22T05:18:07;95495.88;;;27.82;51.31
56600;BME280;51832;48.152;11.530;2023-06-22T05:23:08;95497.00;;;28.02;50.81
56600;BME280;51832;48.152;11.530;2023-06-22T05:28:08;95491.47;;;27.99;50.75
56600;BME280;51832;48.152;11.530;2023-06-22T05:33:11;95509.53;;;28.07;50.71
56600;BME280;51832;48.152;11.530;2023-06-22T05:38:11;95500.91;;;28.13;50.67
56600;BME280;51832;48.152;11.530;2023-06-22T05:43:12;95493.03;;;28.20;50.45
56600;BME280;51832;48.152;11.530;2023-06-22T05:48:12;95492.25;;;27.99;51.45
56600;BME280;51832;48.152;11.530;2023-06-22T05:53:13;95491.66;;;27.93;51.66
56600;BME280;51832;48.152;11.530;2023-06-22T05:58:13;95483.09;;;27.91;52.35
56600;BME280;51832;48.152;11.530;2023-06-22T06:03:14;95505.50;;;28.13;51.67
56600;BME280;51832;48.152;11.530;2023-06-22T06:08:17;95506.78;;;28.15;51.40
56600;BME280;51832;48.152;11.530;2023-06-22T06:13:17;95502.56;;;27.85;52.75
56600;BME280;51832;48.152;11.530;2023-06-22T06:18:18;95499.13;;;27.97;52.64
56600;BME280;51832;48.152;11.530;2023-06-22T06:23:18;95492.13;;;27.95;51.76
56600;BME280;51832;48.152;11.530;2023-06-22T06:28:18;95483.81;;;27.80;53.40
56600;BME280;51832;48.152;11.530;2023-06-22T06:33:19;95481.28;;;28.16;51.95
56600;BME280;51832;48.152;11.530;2023-06-22T06:38:21;95479.34;;;28.38;51.74
56600;BME280;51832;48.152;11.530;2023-06-22T06:43:21;95475.28;;;28.44;51.49
56600;BME280;51832;48.152;11.530;2023-06-22T06:48:22;95487.50;;;28.50;51.30
56600;BME280;51832;48.152;11.530;2023-06-22T06:53:23;95475.84;;;28.37;51.66
56600;BME280;51832;48.152;11.530;2023-06-22T06:58:23;95471.25;;;28.38;51.95
56600;BME280;51832;48.152;11.530;2023-06-22T07:03:24;95469.63;;;28.70;50.90
56600;BME280;51832;48.152;11.530;2023-06-22T07:08:24;95488.00;;;28.64;51.66
56600;BME280;51832;48.152;11.530;2023-06-22T07:13:25;95481.00;;;28.75;50.70
56600;BME280;51832;48.152;11.530;2023-06-22T07:18:25;95471.91;;;29.16;49.97
56600;BME280;51832;48.152;11.530;2023-06-22T07:23:26;95475.66;;;29.24;49.94
56600;BME280;51832;48.152;11.530;2023-06-22T07:28:27;95470.72;;;29.38;48.93
56600;BME280;51832;48.152;11.530;2023-06-22T07:33:27;95461.59;;;29.70;48.70
56600;BME280;51832;48.152;11.530;2023-06-22T07:38:28;95453.56;;;29.74;48.62
56600;BME280;51832;48.152;11.530;2023-06-22T07:43:28;95441.47;;;29.72;48.63
56600;BME280;51832;48.152;11.530;2023-06-22T07:48:30;95434.00;;;30.09;47.94
56600;BME280;51832;48.152;11.530;2023-06-22T07:53:30;95431.72;;;29.83;47.86
56600;BME280;51832;48.152;11.530;2023-06-22T07:58:31;95438.66;;;30.08;47.55
56600;BME280;51832;48.152;11.530;2023-06-22T08:03:32;95449.41;;;30.04;47.89
56600;BME280;51832;48.152;11.530;2023-06-22T08:08:32;95441.97;;;30.45;46.54
56600;BME280;51832;48.152;11.530;2023-06-22T08:13:32;95449.91;;;30.66;45.88
56600;BME280;51832;48.152;11.530;2023-06-22T08:18:33;95435.41;;;30.02;47.36
56600;BME280;51832;48.152;11.530;2023-06-22T08:23:33;95438.94;;;30.78;45.49
56600;BME280;51832;48.152;11.530;2023-06-22T08:28:34;95439.63;;;30.91;45.36
56600;BME280;51832;48.152;11.530;2023-06-22T08:33:35;95433.63;;;31.13;44.52
56600;BME280;51832;48.152;11.530;2023-06-22T08:38:35;95437.63;;;31.19;44.21
56600;BME280;51832;48.152;11.530;2023-06-22T08:43:36;95435.78;;;31.07;44.75
56600;BME280;51832;48.152;11.530;2023-06-22T08:48:36;95430.09;;;31.13;44.31
56600;BME280;51832;48.152;11.530;2023-06-22T08:53:37;95430.91;;;31.13;44.20
56600;BME280;51832;48.152;11.530;2023-06-22T08:58:37;95430.44;;;31.27;43.91
56600;BME280;51832;48.152;11.530;2023-06-22T09:03:37;95421.91;;;31.63;42.98
56600;BME280;51832;48.152;11.530;2023-06-22T09:08:38;95420.88;;;31.68;42.79
56600;BME280;51832;48.152;11.530;2023-06-22T09:13:38;95423.53;;;31.49;43.33
56600;BME280;51832;48.152;11.530;2023-06-22T09:18:39;95420.66;;;31.41;43.30
56600;BME280;51832;48.152;11.530;2023-06-22T09:23:39;95415.72;;;31.82;41.93
56600;BME280;51832;48.152;11.530;2023-06-22T09:28:40;95421.06;;;31.78;41.69
56600;BME280;51832;48.152;11.530;2023-06-22T09:33:40;95412.06;;;31.94;41.29
56600;BME280;51832;48.152;11.530;2023-06-22T09:38:41;95406.84;;;32.46;40.56
56600;BME280;51832;48.152;11.530;2023-06-22T09:43:41;95409.66;;;32.31;40.81
56600;BME280;51832;48.152;11.530;2023-06-22T09:48:42;95400.66;;;32.49;40.17
56600;BME280;51832;48.152;11.530;2023-06-22T09:53:42;95403.09;;;32.77;39.37
56600;BME280;51832;48.152;11.530;2023-06-22T09:58:43;95383.03;;;32.89;39.03
56600;BME280;51832;48.152;11.530;2023-06-22T10:03:44;95379.69;;;32.99;38.65
56600;BME280;51832;48.152;11.530;2023-06-22T10:08:45;95377.53;;;33.12;38.87
56600;BME280;51832;48.152;11.530;2023-06-22T10:13:45;95381.75;;;33.06;39.19
56600;BME280;51832;48.152;11.530;2023-06-22T10:18:46;95368.81;;;33.26;38.98
56600;BME280;51832;48.152;11.530;2023-06-22T10:23:46;95375.53;;;33.35;38.80
56600;BME280;51832;48.152;11.530;2023-06-22T10:28:46;95378.31;;;33.69;38.17
56600;BME280;51832;48.152;11.530;2023-06-22T10:33:49;95372.34;;;33.89;37.56
56600;BME280;51832;48.152;11.530;2023-06-22T10:38:49;95362.47;;;33.78;38.93
56600;BME280;51832;48.152;11.530;2023-06-22T10:43:50;95356.00;;;33.93;38.28
56600;BME280;51832;48.152;11.530;2023-06-22T10:48:50;95348.91;;;33.85;38.95
56600;BME280;51832;48.152;11.530;2023-06-22T10:53:51;95345.75;;;34.16;38.30
56600;BME280;51832;48.152;11.530;2023-06-22T10:58:51;95343.31;;;34.48;37.55
56600;BME280;51832;48.152;11.530;2023-06-22T11:03:52;95342.91;;;34.46;38.33
56600;BME280;51832;48.152;11.530;2023-06-22T11:08:52;95343.47;;;34.66;36.81
56600;BME280;51832;48.152;11.530;2023-06-22T11:13:53;95339.75;;;34.41;36.88
56600;BME280;51832;48.152;11.530;2023-06-22T11:18:53;95340.28;;;34.61;37.45
56600;BME280;51832;48.152;11.530;2023-06-22T11:23:53;95335.72;;;34.75;37.33
56600;BME280;51832;48.152;11.530;2023-06-22T11:28:54;95337.16;;;34.58;37.50
56600;BME280;51832;48.152;11.530;2023-06-22T11:33:54;95320.31;;;35.04;36.93
56600;BME280;51832;48.152;11.530;2023-06-22T11:38:55;95313.09;;;35.37;36.07
56600;BME280;51832;48.152;11.530;2023-06-22T11:43:55;95313.94;;;35.51;36.19
56600;BME280;51832;48.152;11.530;2023-06-22T11:48:55;95299.03;;;35.42;36.04
56600;BME280;51832;48.152;11.530;2023-06-22T11:53:56;95304.22;;;35.68;35.39
56600;BME280;51832;48.152;11.530;2023-06-22T11:58:56;95312.41;;;35.68;35.02
56600;BME280;51832;48.152;11.530;2023-06-22T12:03:57;95302.81;;;36.20;34.84
56600;BME280;51832;48.152;11.530;2023-06-22T12:08:57;95289.91;;;36.53;33.87
56600;BME280;51832;48.152;11.530;2023-06-22T12:13:58;95282.88;;;36.62;33.70
56600;BME280;51832;48.152;11.530;2023-06-22T12:19:01;95276.97;;;36.89;33.25
56600;BME280;51832;48.152;11.530;2023-06-22T12:24:02;95264.41;;;37.02;32.62
56600;BME280;51832;48.152;11.530;2023-06-22T12:29:02;95261.66;;;36.98;32.18
56600;BME280;51832;48.152;11.530;2023-06-22T12:34:03;95261.56;;;37.38;31.84
56600;BME280;51832;48.152;11.530;2023-06-22T12:39:03;95255.34;;;37.12;32.28
56600;BME280;51832;48.152;11.530;2023-06-22T12:44:04;95262.06;;;37.00;32.29
56600;BME280;51832;48.152;11.530;2023-06-22T12:49:04;95244.84;;;36.68;33.23
56600;BME280;51832;48.152;11.530;2023-06-22T12:54:05;95242.78;;;37.25;32.87
56600;BME280;51832;48.152;11.530;2023-06-22T12:59:05;95234.28;;;36.84;33.33
56600;BME280;51832;48.152;11.530;2023-06-22T13:04:06;95241.25;;;37.14;33.25
56600;BME280;51832;48.152;11.530;2023-06-22T13:09:07;95238.03;;;37.40;32.81
56600;BME280;51832;48.152;11.530;2023-06-22T13:14:07;95244.22;;;37.51;31.96
56600;BME280;51832;48.152;11.530;2023-06-22T13:19:07;95244.22;;;37.51;32.34
56600;BME280;51832;48.152;11.530;2023-06-22T13:24:08;95243.22;;;37.97;31.59
56600;BME280;51832;48.152;11.530;2023-06-22T13:29:08;95238.63;;;38.35;30.30
56600;BME280;51832;48.152;11.530;2023-06-22T13:34:09;95238.72;;;38.24;30.63
56600;BME280;51832;48.152;11.530;2023-06-22T13:39:09;95229.09;;;38.43;30.48
56600;BME280;51832;48.152;11.530;2023-06-22T13:44:10;95236.81;;;38.66;29.62
56600;BME280;51832;48.152;11.530;2023-06-22T13:49:10;95238.00;;;39.02;29.51
56600;BME280;51832;48.152;11.530;2023-06-22T13:54:10;95227.63;;;38.80;29.76
56600;BME280;51832;48.152;11.530;2023-06-22T13:59:11;95218.97;;;39.15;29.41
56600;BME280;51832;48.152;11.530;2023-06-22T14:04:11;95212.56;;;38.91;29.29
56600;BME280;51832;48.152;11.530;2023-06-22T14:09:11;95207.91;;;40.06;27.19
56600;BME280;51832;48.152;11.530;2023-06-22T14:14:12;95196.44;;;39.85;27.79
56600;BME280;51832;48.152;11.530;2023-06-22T14:19:12;95204.44;;;39.75;27.64
56600;BME280;51832;48.152;11.530;2023-06-22T14:24:13;95193.66;;;39.85;27.18
56600;BME280;51832;48.152;11.530;2023-06-22T14:29:13;95189.34;;;40.10;25.78
56600;BME280;51832;48.152;11.530;2023-06-22T14:34:15;95178.97;;;40.65;26.18
56600;BME280;51832;48.152;11.530;2023-06-22T14:39:15;95173.91;;;41.03;24.94
56600;BME280;51832;48.152;11.530;2023-06-22T14:44:15;95175.97;;;40.99;25.28
56600;BME280;51832;48.152;11.530;2023-06-22T14:49:16;95163.47;;;41.50;23.40
56600;BME280;51832;48.152;11.530;2023-06-22T14:54:16;95163.00;;;41.55;23.96
56600;BME280;51832;48.152;11.530;2023-06-22T14:59:17;95158.16;;;41.59;22.40
56600;BME280;51832;48.152;11.530;2023-06-22T15:04:17;95144.63;;;41.97;21.77
56600;BME280;51832;48.152;11.530;2023-06-22T15:09:17;95142.91;;;42.19;21.72
56600;BME280;51832;48.152;11.530;2023-06-22T15:14:17;95149.03;;;41.78;22.25
56600;BME280;51832;48.152;11.530;2023-06-22T15:19:18;95141.44;;;41.99;21.75
56600;BME280;51832;48.152;11.530;2023-06-22T15:24:18;95130.31;;;41.50;21.49
56600;BME280;51832;48.152;11.530;2023-06-22T15:29:19;95113.25;;;40.60;21.70
56600;BME280;51832;48.152;11.530;2023-06-22T15:34:19;95102.53;;;40.85;22.04
56600;BME280;51832;48.152;11.530;2023-06-22T15:39:19;95090.19;;;41.45;20.99
56600;BME280;51832;48.152;11.530;2023-06-22T15:44:21;95083.16;;;42.38;19.16
56600;BME280;51832;48.152;11.530;2023-06-22T15:49:21;95071.91;;;42.74;19.39
56600;BME280;51832;48.152;11.530;2023-06-22T15:54:22;95074.03;;;42.25;19.72
56600;BME280;51832;48.152;11.530;2023-06-22T15:59:22;95087.81;;;43.12;18.89
56600;BME280;51832;48.152;11.530;2023-06-22T16:04:24;95092.19;;;42.84;20.25
56600;BME280;51832;48.152;11.530;2023-06-22T16:09:24;95098.25;;;43.33;20.58
56600;BME280;51832;48.152;11.530;2023-06-22T16:14:25;95105.03;;;43.45;20.69
56600;BME280;51832;48.152;11.530;2023-06-22T16:19:25;95096.81;;;43.54;19.90
56600;BME280;51832;48.152;11.530;2023-06-22T16:24:25;95088.72;;;43.85;19.03
56600;BME280;51832;48.152;11.530;2023-06-22T16:29:26;95072.09;;;43.85;19.18
56600;BME280;51832;48.152;11.530;2023-06-22T16:34:26;95043.31;;;43.57;19.63
56600;BME280;51832;48.152;11.530;2023-06-22T16:39:27;94980.91;;;42.22;20.45
56600;BME280;51832;48.152;11.530;2023-06-22T16:44:27;94925.94;;;40.49;22.85
56600;BME280;51832;48.152;11.530;2023-06-22T16:49:28;94953.28;;;37.89;25.99
56600;BME280;51832;48.152;11.530;2023-06-22T16:54:31;94999.63;;;38.24;25.82
56600;BME280;51832;48.152;11.530;2023-06-22T16:59:31;95051.72;;;37.94;26.46
56600;BME280;51832;48.152;11.530;2023-06-22T17:04:33;95126.16;;;38.06;24.34
56600;BME280;51832;48.152;11.530;2023-06-22T17:09:35;95141.91;;;37.47;26.28
56600;BME280;51832;48.152;11.530;2023-06-22T17:14:39;95164.38;;;33.33;40.50
56600;BME280;51832;48.152;11.530;2023-06-22T17:19:40;95179.28;;;29.60;61.92
56600;BME280;51832;48.152;11.530;2023-06-22T17:24:40;95280.91;;;26.81;74.61
56600;BME280;51832;48.152;11.530;2023-06-22T17:29:41;95416.94;;;25.35;80.04
56600;BME280;51832;48.152;11.530;2023-06-22T17:34:41;95267.19;;;24.91;74.85
56600;BME280;51832;48.152;11.530;2023-06-22T17:39:51;95192.97;;;24.64;67.03
56600;BME280;51832;48.152;11.530;2023-06-22T17:44:52;95136.25;;;25.67;61.85
56600;BME280;51832;48.152;11.530;2023-06-22T17:50:06;95166.50;;;25.09;61.25
56600;BME280;51832;48.152;11.530;2023-06-22T17:55:07;95167.47;;;24.61;65.15
56600;BME280;51832;48.152;11.530;2023-06-22T18:00:09;95175.59;;;25.42;63.78
56600;BME280;51832;48.152;11.530;2023-06-22T18:05:12;95197.88;;;26.57;63.34
56600;BME280;51832;48.152;11.530;2023-06-22T18:10:12;95170.50;;;27.21;57.28
56600;BME280;51832;48.152;11.530;2023-06-22T18:15:13;95167.03;;;28.14;55.16
56600;BME280;51832;48.152;11.530;2023-06-22T18:20:14;95195.66;;;28.27;53.90
56600;BME280;51832;48.152;11.530;2023-06-22T18:25:15;95247.75;;;27.34;57.85
56600;BME280;51832;48.152;11.530;2023-06-22T18:30:17;95223.03;;;26.49;61.58
56600;BME280;51832;48.152;11.530;2023-06-22T18:35:18;95215.34;;;27.01;62.45
56600;BME280;51832;48.152;11.530;2023-06-22T18:40:18;95174.09;;;27.58;61.15
56600;BME280;51832;48.152;11.530;2023-06-22T18:45:24;95189.91;;;26.81;62.77
56600;BME280;51832;48.152;11.530;2023-06-22T18:50:44;95154.41;;;27.70;61.96
56600;BME280;51832;48.152;11.530;2023-06-22T18:55:49;95193.03;;;27.25;63.59
56600;BME280;51832;48.152;11.530;2023-06-22T19:00:51;95162.28;;;26.43;70.97
56600;BME280;51832;48.152;11.530;2023-06-22T19:05:52;95177.03;;;26.45;67.42
56600;BME280;51832;48.152;11.530;2023-06-22T19:10:53;95196.25;;;26.65;65.95
56600;BME280;51832;48.152;11.530;2023-06-22T19:15:54;95189.25;;;26.43;65.11
56600;BME280;51832;48.152;11.530;2023-06-22T19:21:11;95170.59;;;25.79;69.02
56600;BME280;51832;48.152;11.530;2023-06-22T19:26:16;95184.09;;;26.00;67.96
56600;BME280;51832;48.152;11.530;2023-06-22T19:31:21;95223.56;;;25.58;70.63
56600;BME280;51832;48.152;11.530;2023-06-22T19:36:22;95259.41;;;23.98;81.46
56600;BME280;51832;48.152;11.530;2023-06-22T19:41:23;95292.19;;;22.88;81.42
56600;BME280;51832;48.152;11.530;2023-06-22T19:46:30;95304.78;;;23.99;84.11
56600;BME280;51832;48.152;11.530;2023-06-22T19:51:35;95313.22;;;23.31;90.27
56600;BME280;51832;48.152;11.530;2023-06-22T19:56:36;95316.31;;;23.02;91.70
56600;BME280;51832;48.152;11.530;2023-06-22T20:01:38;95275.00;;;22.76;90.68
56600;BME280;51832;48.152;11.530;2023-06-22T20:06:39;95263.91;;;23.27;88.31
56600;BME280;51832;48.152;11.530;2023-06-22T20:11:40;95257.72;;;24.10;84.41
56600;BME280;51832;48.152;11.530;2023-06-22T20:16:47;95293.47;;;24.20;84.66
56600;BME280;51832;48.152;11.530;2023-06-22T20:21:53;95259.38;;;24.37;84.02
56600;BME280;51832;48.152;11.530;2023-06-22T20:26:54;95373.34;;;23.88;86.98
56600;BME280;51832;48.152;11.530;2023-06-22T20:32:14;95376.41;;;23.73;88.07
56600;BME280;51832;48.152;11.530;2023-06-22T20:37:16;95387.06;;;23.64;87.32
56600;BME280;51832;48.152;11.530;2023-06-22T20:42:21;95369.50;;;23.58;86.63
56600;BME280;51832;48.152;11.530;2023-06-22T20:47:22;95356.72;;;23.42;88.63
56600;BME280;51832;48.152;11.530;2023-06-22T20:52:22;95362.34;;;22.95;91.18
56600;BME280;51832;48.152;11.530;2023-06-22T20:57:23;95355.78;;;23.24;89.81
56600;BME280;51832;48.152;11.530;2023-06-22T21:02:23;95359.88;;;22.85;91.53
56600;BME280;51832;48.152;11.530;2023-06-22T21:07:24;95318.97;;;22.80;90.77
56600;BME280;51832;48.152;11.530;2023-06-22T21:12:24;95342.00;;;22.67;92.12
56600;BME280;51832;48.152;11.530;2023-06-22T21:17:25;95362.81;;;22.97;89.37
56600;BME280;51832;48.152;11.530;2023-06-22T21:22:25;95376.84;;;22.94;88.19
56600;BME280;51832;48.152;11.530;2023-06-22T21:27:27;95355.16;;;23.04;88.23
56600;BME280;51832;48.152;11.530;2023-06-22T21:32:27;95369.09;;;22.93;88.90
56600;BME280;51832;48.152;11.530;2023-06-22T21:37:28;95400.78;;;23.40;87.54
56600;BME280;51832;48.152;11.530;2023-06-22T21:42:29;95433.22;;;22.94;87.49
56600;BME280;51832;48.152;11.530;2023-06-22T21:47:29;95445.38;;;23.28;86.38
56600;BME280;51832;48.152;11.530;2023-06-22T21:52:30;95462.72;;;23.58;83.60
56600;BME280;51832;48.152;11.530;2023-06-22T21:57:30;95458.50;;;23.65;82.94
56600;BME280;51832;48.152;11.530;2023-06-22T22:02:31;95464.88;;;23.69;82.64
56600;BME280;51832;48.152;11.530;2023-06-22T22:07:31;95465.53;;;24.20;81.23
56600;BME280;51832;48.152;11.530;2023-06-22T22:12:31;95465.31;;;23.85;82.33
56600;BME280;51832;48.152;11.530;2023-06-22T22:17:32;95481.13;;;23.51;81.81
56600;BME280;51832;48.152;11.530;2023-06-22T22:22:33;95498.00;;;23.65;81.40
56600;BME280;51832;48.152;11.530;2023-06-22T22:27:33;95482.00;;;24.18;80.30
56600;BME280;51832;48.152;11.530;2023-06-22T22:32:34;95495.22;;;23.70;79.69
56600;BME280;51832;48.152;11.530;2023-06-22T22:37:34;95526.22;;;22.99;80.39
56600;BME280;51832;48.152;11.530;2023-06-22T22:42:34;95552.88;;;22.63;81.33
56600;BME280;51832;48.152;11.530;2023-06-22T22:47:35;95574.03;;;22.64;80.89
56600;BME280;51832;48.152;11.530;2023-06-22T22:52:36;95565.72;;;22.66;80.63
56600;BME280;51832;48.152;11.530;2023-06-22T22:57:38;95576.72;;;22.64;79.42
56600;BME280;51832;48.152;11.530;2023-06-22T23:02:39;95608.34;;;22.49;81.29
56600;BME280;51832;48.152;11.530;2023-06-22T23:07:40;95596.31;;;22.46;80.89
56600;BME280;51832;48.152;11.530;2023-06-22T23:12:42;95581.78;;;22.33;80.65
56600;BME280;51832;48.152;11.530;2023-06-22T23:17:43;95580.44;;;22.17;79.93
56600;BME280;51832;48.152;11.530;2023-06-22T23:22:43;95590.56;;;22.39;79.48
56600;BME280;51832;48.152;11.530;2023-06-22T23:27:44;95599.41;;;22.21;78.77
56600;BME280;51832;48.152;11.530;2023-06-22T23:32:44;95593.00;;;22.54;77.57
56600;BME280;51832;48.152;11.530;2023-06-22T23:37:45;95579.38;;;22.51;77.65
56600;BME280;51832;48.152;11.530;2023-06-22T23:42:48;95593.06;;;22.49;76.75
56600;BME280;51832;48.152;11.530;2023-06-22T23:47:49;95604.59;;;22.31;75.87
56600;BME280;51832;48.152;11.530;2023-06-22T23:52:49;95621.97;;;21.77;77.32
56600;BME280;51832;48.152;11.530;2023-06-22T23:57:50;95600.78;;;22.18;74.96
